M I D A S
Marine Information and Data Acquisition System
Tripno 2252 of the Zeeleeuw from 2012-01-10 07:41:26 to 2012-01-10 16:58:52
Back to CruiseResearch ActivitiesStationsMapUnderway DataData graphs

EquipmentUnitsComments
TimeDGPSUTC
LatitudeDGPSDM.mWGS84
LongitudeDGPSDM.mWGS84
SpeedMeteo Stationm/sRelative wind speed
DirectionMeteo StationdegRelative wind direction
TemperatureMeteo Stationdeg CelciusAir temperature
PressureMeteo StationPaAtmospheric pressure
HumidityMeteo Station%Relative humidity
Missing or incorrect values are displayed as -999
Metereological data collected by the RV Zeeleeuw from 2012-01-10 07:44:33 to 2012-01-10 17:02:15
Time Latitude Longitude Speed Direction Temperature Pressure Humidity
2012-01-10 07:45 51°13.654 2°55.93 3 79 7.5 103330 46
2012-01-10 07:46 51°13.687 2°55.823 2.5 40 7.5 103330 48
2012-01-10 07:47 51°13.74 2°55.714 2.5 43 7.5 103330 48
2012-01-10 07:48 51°13.815 2°55.639 2.1 41 7.6 103330 47
2012-01-10 07:49 51°13.899 2°55.623 0.9 56 7.6 103330 49
2012-01-10 07:50 51°13.957 2°55.65 -999 7 7.6 103330 49
2012-01-10 07:51 51°13.975 2°55.663 2.4 305 7.6 103330 47
2012-01-10 07:52 51°13.995 2°55.593 2.6 303 7.7 103330 50
2012-01-10 07:53 51°14.084 2°55.48 4.6 303 7.7 103330 50
2012-01-10 07:54 51°14.216 2°55.347 5.6 309 7.8 103330 51
2012-01-10 07:55 51°14.357 2°55.209 6.2 308 7.9 103320 51
2012-01-10 07:56 51°14.506 2°55.059 4.9 310 8 103320 51
2012-01-10 07:57 51°14.662 2°54.89 5 309 7.9 103320 51
2012-01-10 07:58 51°14.82 2°54.711 5.6 305 7.8 103320 49
2012-01-10 07:59 51°14.978 2°54.51 5.1 302 7.8 103320 48
2012-01-10 08:00 51°15.135 2°54.312 7.2 308 7.9 103320 51
2012-01-10 08:01 51°15.285 2°54.102 6.6 309 7.9 103320 49
2012-01-10 08:02 51°15.439 2°53.9 6.2 310 7.9 103320 50
2012-01-10 08:03 51°15.595 2°53.701 5.6 303 7.9 103320 51
2012-01-10 08:04 51°15.766 2°53.54 4.8 305 7.9 103320 50
2012-01-10 08:05 51°15.948 2°53.418 4 308 8 103320 48
2012-01-10 08:06 51°16.123 2°53.274 4 305 8 103320 48
2012-01-10 08:07 51°16.287 2°53.101 4.5 304 8 103320 52
2012-01-10 08:08 51°16.452 2°52.93 5.3 303 8 103320 48
2012-01-10 08:09 51°16.62 2°52.772 4.9 305 8 103320 50
2012-01-10 08:10 51°16.787 2°52.623 6.3 305 8.1 103320 49
2012-01-10 08:11 51°16.953 2°52.487 6.4 305 8.1 103310 52
2012-01-10 08:12 51°17.118 2°52.343 5.6 307 8.2 103320 49
2012-01-10 08:13 51°17.281 2°52.189 6.1 309 8.2 103310 51
2012-01-10 08:14 51°17.45 2°52.057 6.7 304 8.2 103310 49
2012-01-10 08:15 51°17.617 2°51.924 5.2 308 8.2 103310 49
2012-01-10 08:16 51°17.782 2°51.78 5.8 306 8.3 103310 52
2012-01-10 08:17 51°17.946 2°51.629 6.1 307 8.3 103320 50
2012-01-10 08:18 51°18.114 2°51.489 5.3 304 8.3 103310 52
2012-01-10 08:19 51°18.281 2°51.333 6.1 305 8.3 103310 48
2012-01-10 08:20 51°18.453 2°51.179 6 305 8.2 103310 50
2012-01-10 08:21 51°18.622 2°51.052 5.7 307 8.2 103310 52
2012-01-10 08:22 51°18.797 2°50.912 4.9 304 8.2 103310 51
2012-01-10 08:23 51°18.967 2°50.779 6.2 308 8.2 103320 48
2012-01-10 08:24 51°19.144 2°50.652 5 308 8.2 103320 48
2012-01-10 08:25 51°19.316 2°50.501 4.1 308 8.2 103320 47
2012-01-10 08:26 51°19.493 2°50.376 4.3 310 8.2 103320 50
2012-01-10 08:27 51°19.679 2°50.263 4.5 307 8.2 103320 48
2012-01-10 08:28 51°19.857 2°50.137 5.5 307 8.2 103320 48
2012-01-10 08:29 51°20.037 2°49.98 5.3 305 8.2 103320 51
2012-01-10 08:30 51°20.219 2°49.854 4.6 310 8.2 103320 52
2012-01-10 08:31 51°20.406 2°49.722 5 303 8.3 103320 52
2012-01-10 08:32 51°20.584 2°49.577 5.6 309 8.3 103310 49
2012-01-10 08:33 51°20.764 2°49.432 6 310 8.3 103310 51
2012-01-10 08:34 51°20.942 2°49.297 5.1 310 8.4 103310 49
2012-01-10 08:35 51°21.127 2°49.187 5 307 8.4 103310 52
2012-01-10 08:36 51°21.308 2°49.06 4.8 305 8.4 103310 51
2012-01-10 08:37 51°21.494 2°48.951 4.8 310 8.4 103310 51
2012-01-10 08:38 51°21.68 2°48.83 5.6 303 8.4 103310 50
2012-01-10 08:39 51°21.855 2°48.697 5.1 304 8.5 103300 52
2012-01-10 08:40 51°22.043 2°48.585 5 302 8.5 103310 52
2012-01-10 08:41 51°22.221 2°48.464 5 305 8.6 103300 49
2012-01-10 08:42 51°22.402 2°48.361 4.7 307 8.6 103300 50
2012-01-10 08:43 51°22.575 2°48.239 5.9 308 8.5 103300 52
2012-01-10 08:44 51°22.746 2°48.106 4.8 303 8.6 103310 53
2012-01-10 08:45 51°22.924 2°47.984 4.9 308 8.6 103300 52
2012-01-10 08:46 51°23.096 2°47.856 5.1 280 8.6 103300 50
2012-01-10 08:47 51°23.276 2°47.737 5 308 8.6 103300 49
2012-01-10 08:48 51°23.453 2°47.628 5.5 280 8.6 103290 53
2012-01-10 08:49 51°23.63 2°47.503 5.5 303 8.6 103290 48
2012-01-10 08:50 51°23.807 2°47.374 5.7 285 8.7 103290 52
2012-01-10 08:51 51°23.984 2°47.244 5 310 8.7 103290 52
2012-01-10 08:52 51°24.164 2°47.131 6.3 280 8.7 103290 52
2012-01-10 08:53 51°24.339 2°46.997 5.5 304 8.7 103280 52
2012-01-10 08:54 51°24.522 2°46.881 5.2 285 8.7 103290 51
2012-01-10 08:55 51°24.699 2°46.769 6.2 285 8.8 103280 53
2012-01-10 08:56 51°24.878 2°46.637 6.6 304 8.8 103290 50
2012-01-10 08:57 51°25.053 2°46.518 6.2 279 8.8 103300 49
2012-01-10 08:58 51°25.228 2°46.388 5.7 308 8.8 103290 53
2012-01-10 08:59 51°25.4 2°46.242 6.3 281 8.8 103290 50
2012-01-10 09:00 51°25.573 2°46.104 6.8 306 8.8 103290 53
2012-01-10 09:01 51°25.746 2°45.954 8.2 283 8.9 103290 53
2012-01-10 09:02 51°25.918 2°45.828 6.3 306 8.9 103290 52
2012-01-10 09:03 51°26.097 2°45.706 5.8 283 8.9 103290 53
2012-01-10 09:04 51°26.268 2°45.575 7.6 310 8.9 103290 51
2012-01-10 09:05 51°26.445 2°45.434 6 311 8.9 103300 51
2012-01-10 09:06 51°26.618 2°45.303 6.2 308 8.9 103300 50
2012-01-10 09:07 51°26.789 2°45.15 5.8 305 8.9 103290 53
2012-01-10 09:08 51°26.964 2°45.016 5.7 305 8.9 103300 53
2012-01-10 09:09 51°27.141 2°44.883 6.5 304 8.9 103290 53
2012-01-10 09:10 51°27.318 2°44.739 6 304 9 103280 53
2012-01-10 09:11 51°27.489 2°44.597 6.7 308 9 103300 50
2012-01-10 09:12 51°27.668 2°44.457 5.4 282 9 103290 53
2012-01-10 09:13 51°27.842 2°44.332 3.3 309 9 103290 49
2012-01-10 09:14 51°28.019 2°44.187 7.1 310 9 103290 50
2012-01-10 09:15 51°28.195 2°44.067 6.2 305 9.1 103290 51
2012-01-10 09:16 51°28.373 2°43.948 7.7 310 9.1 103290 51
2012-01-10 09:17 51°28.549 2°43.815 6.8 310 9.1 103290 51
2012-01-10 09:18 51°28.721 2°43.675 7 309 9.1 103300 51
2012-01-10 09:19 51°28.904 2°43.561 7.1 305 9.1 103300 51
2012-01-10 09:20 51°29.077 2°43.438 7.1 308 9.1 103290 52
2012-01-10 09:21 51°29.253 2°43.304 8.1 304 9.1 103290 50
2012-01-10 09:22 51°29.421 2°43.163 6.5 304 9.2 103290 52
2012-01-10 09:23 51°29.602 2°43.122 3.7 310 9.2 103290 51
2012-01-10 09:24 51°29.779 2°43.184 2.8 303 9.2 103300 50
2012-01-10 09:25 51°29.958 2°43.254 3 307 9.2 103300 51
2012-01-10 09:26 51°30.128 2°43.335 2.9 308 9.2 103300 50
2012-01-10 09:27 51°30.298 2°43.429 2.6 304 9.2 103300 54
2012-01-10 09:28 51°30.471 2°43.512 2.3 304 9.2 103300 54
2012-01-10 09:29 51°30.641 2°43.585 2.5 309 9.2 103300 50
2012-01-10 09:30 51°30.815 2°43.674 2.8 309 9.2 103300 53
2012-01-10 09:31 51°30.983 2°43.762 2.9 310 9.2 103310 52
2012-01-10 09:32 51°31.153 2°43.856 3.3 305 9.2 103300 51
2012-01-10 09:33 51°31.323 2°43.952 4.1 305 9.3 103300 55
2012-01-10 09:34 51°31.497 2°44.032 4.3 307 9.3 103300 51
2012-01-10 09:35 51°31.673 2°44.117 2.7 306 9.3 103300 54
2012-01-10 09:36 51°31.838 2°44.216 2.8 307 9.3 103310 51
2012-01-10 09:37 51°32.013 2°44.303 3.3 311 9.3 103310 50
2012-01-10 09:38 51°32.183 2°44.379 3.1 309 9.3 103310 54
2012-01-10 09:39 51°32.354 2°44.482 1.7 310 9.3 103300 54
2012-01-10 09:40 51°32.525 2°44.558 3 310 9.3 103310 51
2012-01-10 09:41 51°32.7 2°44.647 2.2 302 9.3 103300 51
2012-01-10 09:42 51°32.867 2°44.747 2.1 307 9.3 103300 55
2012-01-10 09:43 51°33.038 2°44.833 2.9 304 9.3 103300 51
2012-01-10 09:44 51°33.212 2°44.921 2.4 309 9.3 103300 55
2012-01-10 09:45 51°33.379 2°45.019 2.5 307 9.3 103300 50
2012-01-10 09:46 51°33.552 2°45.108 2.5 284 9.3 103300 55
2012-01-10 09:47 51°33.721 2°45.186 2.4 284 9.3 103290 55
2012-01-10 09:48 51°33.898 2°45.264 2.1 279 9.3 103300 53
2012-01-10 09:49 51°34.066 2°45.355 2.4 283 9.3 103290 56
2012-01-10 09:50 51°34.237 2°45.456 1.5 283 9.3 103290 55
2012-01-10 09:51 51°34.406 2°45.535 2.4 279 9.3 103290 52
2012-01-10 09:52 51°34.578 2°45.628 2.2 282 9.3 103290 52
2012-01-10 09:53 51°34.753 2°45.702 2.3 284 9.3 103290 54
2012-01-10 09:54 51°34.927 2°45.774 4.2 280 9.3 103290 56
2012-01-10 09:55 51°35.105 2°45.829 3.8 284 9.3 103280 53
2012-01-10 09:56 51°35.282 2°45.88 3.1 280 9.3 103290 56
2012-01-10 09:57 51°35.461 2°45.956 3.1 284 9.4 103290 54
2012-01-10 09:58 51°35.634 2°46.023 2.6 280 9.3 103290 56
2012-01-10 09:59 51°35.814 2°46.101 2.9 279 9.3 103280 53
2012-01-10 10:00 51°35.99 2°46.177 3.3 304 9.3 103280 52
2012-01-10 10:01 51°36.171 2°46.235 3.2 286 9.3 103280 52
2012-01-10 10:02 51°36.345 2°46.329 1.4 287 9.3 103280 53
2012-01-10 10:03 51°36.521 2°46.413 2 280 9.3 103280 56
2012-01-10 10:04 51°36.697 2°46.499 1.9 286 9.3 103270 55
2012-01-10 10:05 51°36.862 2°46.613 1 286 9.3 103280 54
2012-01-10 10:06 51°37.034 2°46.722 -999 283 9.3 103270 54
2012-01-10 10:07 51°37.202 2°46.829 2.1 286 9.3 103270 57
2012-01-10 10:08 51°37.375 2°46.937 1.5 287 9.3 103280 53
2012-01-10 10:09 51°37.543 2°47.051 1.8 303 9.3 103270 55
2012-01-10 10:10 51°37.713 2°47.157 1.3 283 9.3 103270 53
2012-01-10 10:11 51°37.878 2°47.281 1.5 287 9.3 103270 54
2012-01-10 10:12 51°38.047 2°47.39 1.5 283 9.3 103270 52
2012-01-10 10:13 51°38.213 2°47.509 1.7 283 9.3 103270 53
2012-01-10 10:14 51°38.38 2°47.606 2.4 284 9.3 103280 54
2012-01-10 10:15 51°38.548 2°47.725 1.8 283 9.3 103280 54
2012-01-10 10:16 51°38.714 2°47.825 2.8 285 9.3 103270 55
2012-01-10 10:17 51°38.886 2°47.925 2.3 286 9.2 103270 51
2012-01-10 10:18 51°39.057 2°48.026 2.2 307 9.2 103270 53
2012-01-10 10:19 51°39.225 2°48.133 2.7 285 9.2 103270 54
2012-01-10 10:20 51°39.396 2°48.229 3.1 287 9.2 103270 56
2012-01-10 10:21 51°39.561 2°48.333 3.2 283 9.2 103270 56
2012-01-10 10:22 51°39.729 2°48.453 3.8 284 9.3 103270 53
2012-01-10 10:23 51°39.896 2°48.549 4 281 9.3 103270 53
2012-01-10 10:24 51°40.066 2°48.658 2.6 278 9.3 103270 56
2012-01-10 10:25 51°40.23 2°48.787 3.1 305 9.4 103270 54
2012-01-10 10:26 51°40.403 2°48.879 2.4 278 9.4 103260 53
2012-01-10 10:27 51°40.577 2°48.972 3.9 308 9.4 103270 53
2012-01-10 10:28 51°40.752 2°49.06 3.5 285 9.4 103260 53
2012-01-10 10:29 51°40.922 2°49.175 3.9 304 9.4 103260 55
2012-01-10 10:30 51°41.09 2°49.274 3.7 281 9.4 103260 52
2012-01-10 10:31 51°41.266 2°49.377 3.4 280 9.4 103260 53
2012-01-10 10:32 51°41.436 2°49.474 4.8 285 9.4 103260 56
2012-01-10 10:33 51°41.614 2°49.571 4.1 285 9.4 103260 55
2012-01-10 10:34 51°41.789 2°49.646 5.5 309 9.4 103260 56
2012-01-10 10:35 51°41.96 2°49.547 7.8 282 9.4 103250 53
2012-01-10 10:36 51°42.105 2°49.34 8.1 281 9.4 103230 54
2012-01-10 10:37 51°42.226 2°49.089 10.9 280 9.4 103230 56
2012-01-10 10:38 51°42.333 2°48.816 10 281 9.4 103240 54
2012-01-10 10:39 51°42.37 2°48.506 11 284 9.5 103230 54
2012-01-10 10:40 51°42.251 2°48.227 12.2 283 9.5 103230 54
2012-01-10 10:41 51°42.052 2°48.086 8.9 343 9.5 103220 53
2012-01-10 10:42 51°41.844 2°47.967 10.9 285 9.5 103230 55
2012-01-10 10:43 51°41.634 2°47.867 10.5 341 9.5 103230 53
2012-01-10 10:44 51°41.43 2°47.738 11.2 282 9.5 103230 54
2012-01-10 10:45 51°41.221 2°47.627 9.6 339 9.5 103230 53
2012-01-10 10:46 51°41.019 2°47.51 11 338 9.5 103240 55
2012-01-10 10:47 51°40.808 2°47.398 8.6 337 9.5 103240 55
2012-01-10 10:48 51°40.607 2°47.277 9.5 337 9.5 103230 55
2012-01-10 10:49 51°40.4 2°47.144 9.4 335 9.5 103230 54
2012-01-10 10:50 51°40.193 2°47.03 8.4 337 9.5 103230 54
2012-01-10 10:51 51°39.991 2°46.916 9.4 339 9.5 103230 54
2012-01-10 10:52 51°39.781 2°46.803 9.7 334 9.5 103230 54
2012-01-10 10:53 51°39.584 2°46.666 9.2 336 9.5 103240 54
2012-01-10 10:54 51°39.379 2°46.53 11.1 336 9.5 103230 55
2012-01-10 10:55 51°39.177 2°46.416 9.9 335 9.5 103240 56
2012-01-10 10:56 51°38.971 2°46.275 9.5 337 9.5 103240 54
2012-01-10 10:57 51°38.774 2°46.147 9.6 339 9.5 103240 54
2012-01-10 10:58 51°38.562 2°46.056 12.3 342 9.5 103240 55
2012-01-10 10:59 51°38.359 2°45.957 9 340 9.5 103240 54
2012-01-10 11:00 51°38.15 2°45.845 10.2 339 9.5 103240 54
2012-01-10 11:01 51°37.94 2°45.762 9.2 339 9.5 103230 53
2012-01-10 11:02 51°37.735 2°45.674 9.1 340 9.5 103240 56
2012-01-10 11:03 51°37.527 2°45.564 9 338 9.5 103240 53
2012-01-10 11:04 51°37.324 2°45.47 10.2 339 9.4 103230 55
2012-01-10 11:05 51°37.118 2°45.353 9.3 340 9.4 103230 54
2012-01-10 11:06 51°36.917 2°45.249 9.6 340 9.4 103230 55
2012-01-10 11:07 51°36.709 2°45.15 11.4 339 9.4 103230 54
2012-01-10 11:08 51°36.509 2°45.034 10.4 343 9.4 103220 54
2012-01-10 11:09 51°36.307 2°44.927 8.9 341 9.4 103220 53
2012-01-10 11:10 51°36.107 2°44.816 8.9 342 9.4 103220 54
2012-01-10 11:11 51°35.909 2°44.714 11 342 9.4 103210 53
2012-01-10 11:12 51°35.704 2°44.619 10.8 340 9.4 103220 53
2012-01-10 11:13 51°35.509 2°44.508 10.4 340 9.4 103220 54
2012-01-10 11:14 51°35.31 2°44.389 9.5 339 9.4 103220 55
2012-01-10 11:15 51°35.165 2°44.341 6.3 350 9.4 103230 55
2012-01-10 11:16 51°35.09 2°44.356 6.3 346 9.4 103240 52
2012-01-10 11:17 51°35.03 2°44.328 6 342 9.4 103240 56
2012-01-10 11:18 51°34.968 2°44.297 5.7 342 9.4 103240 53
2012-01-10 11:19 51°34.926 2°44.244 5.7 306 9.4 103240 56
2012-01-10 11:20 51°34.93 2°44.178 5.8 306 9.4 103230 52
2012-01-10 11:21 51°35.003 2°44.083 6 304 9.4 103230 54
2012-01-10 11:22 51°35.084 2°43.967 6.5 308 9.4 103230 54
2012-01-10 11:23 51°35.081 2°43.868 6 327 9.4 103230 56
2012-01-10 11:24 51°35.056 2°43.806 7 332 9.5 103240 56
2012-01-10 11:25 51°35.023 2°43.751 6.4 336 9.5 103230 56
2012-01-10 11:26 51°34.987 2°43.703 6.4 339 9.5 103230 52
2012-01-10 11:27 51°34.944 2°43.678 5.8 355 9.5 103230 53
2012-01-10 11:28 51°34.835 2°43.712 9.4 348 9.4 103210 55
2012-01-10 11:29 51°34.64 2°43.713 10.5 343 9.4 103210 53
2012-01-10 11:30 51°34.431 2°43.688 11.8 344 9.4 103210 54
2012-01-10 11:31 51°34.229 2°43.677 8.8 344 9.4 103200 54
2012-01-10 11:32 51°34.02 2°43.654 12.7 345 9.4 103200 55
2012-01-10 11:33 51°33.814 2°43.638 12 346 9.4 103200 53
2012-01-10 11:34 51°33.608 2°43.648 10.7 346 9.4 103200 53
2012-01-10 11:35 51°33.403 2°43.646 10.3 340 9.4 103200 55
2012-01-10 11:36 51°33.247 2°43.48 11.1 330 9.4 103210 53
2012-01-10 11:37 51°33.166 2°43.19 12 328 9.5 103200 54
2012-01-10 11:38 51°33.09 2°42.908 10.2 329 9.5 103200 53
2012-01-10 11:39 51°33.018 2°42.61 10.2 329 9.5 103210 54
2012-01-10 11:40 51°32.943 2°42.328 11.7 328 9.5 103200 55
2012-01-10 11:41 51°32.877 2°42.03 12.5 330 9.5 103200 55
2012-01-10 11:42 51°32.815 2°41.734 12.2 330 9.6 103200 53
2012-01-10 11:43 51°32.752 2°41.437 11.2 329 9.6 103190 54
2012-01-10 11:44 51°32.68 2°41.146 10.8 332 9.6 103200 55
2012-01-10 11:45 51°32.602 2°40.864 11 330 9.6 103200 52
2012-01-10 11:46 51°32.556 2°40.558 13.6 322 9.6 103190 54
2012-01-10 11:47 51°32.638 2°40.297 9.9 302 9.6 103190 54
2012-01-10 11:48 51°32.818 2°40.313 5 309 9.7 103190 53
2012-01-10 11:49 51°32.99 2°40.476 3.4 307 9.7 103210 54
2012-01-10 11:50 51°33.134 2°40.718 2.9 305 9.7 103210 54
2012-01-10 11:51 51°33.306 2°40.903 4.7 310 9.7 103210 53
2012-01-10 11:52 51°33.492 2°41.038 4.6 307 9.7 103200 52
2012-01-10 11:53 51°33.689 2°41.153 6.1 309 9.7 103200 51
2012-01-10 11:54 51°33.88 2°41.267 5.1 308 9.7 103190 52
2012-01-10 11:55 51°34.073 2°41.39 5.1 309 9.8 103190 55
2012-01-10 11:56 51°34.266 2°41.517 5.1 303 9.8 103190 55
2012-01-10 11:57 51°34.463 2°41.625 6.3 304 9.8 103190 52
2012-01-10 11:58 51°34.662 2°41.745 6.4 303 9.7 103190 55
2012-01-10 11:59 51°34.859 2°41.842 6.1 309 9.8 103190 55
2012-01-10 12:00 51°35.056 2°41.957 5.5 309 9.8 103180 52
2012-01-10 12:01 51°35.256 2°42.063 6.1 306 9.8 103180 54
2012-01-10 12:02 51°35.455 2°42.18 5 310 9.8 103180 54
2012-01-10 12:03 51°35.656 2°42.291 5.9 308 9.8 103190 55
2012-01-10 12:04 51°35.856 2°42.409 5.6 303 9.8 103190 53
2012-01-10 12:05 51°36.055 2°42.531 5.8 307 9.8 103180 52
2012-01-10 12:06 51°36.257 2°42.634 5.4 307 9.8 103180 52
2012-01-10 12:07 51°36.46 2°42.751 5.1 304 9.8 103180 52
2012-01-10 12:08 51°36.66 2°42.867 6 303 9.8 103190 53
2012-01-10 12:09 51°36.864 2°42.96 5.5 305 9.8 103180 54
2012-01-10 12:10 51°37.066 2°43.071 4.8 303 9.8 103180 52
2012-01-10 12:11 51°37.265 2°43.193 5.2 302 9.8 103180 52
2012-01-10 12:12 51°37.464 2°43.294 6.6 302 9.8 103180 52
2012-01-10 12:13 51°37.672 2°43.392 6.2 307 9.8 103180 52
2012-01-10 12:14 51°37.874 2°43.49 7.6 310 9.8 103170 55
2012-01-10 12:15 51°38.078 2°43.607 5.3 302 9.8 103180 53
2012-01-10 12:16 51°38.279 2°43.727 5.2 308 9.8 103170 52
2012-01-10 12:17 51°38.478 2°43.832 5.6 308 9.8 103170 53
2012-01-10 12:18 51°38.685 2°43.931 6 309 9.8 103160 55
2012-01-10 12:19 51°38.885 2°44.032 6.4 309 9.8 103160 52
2012-01-10 12:20 51°39.091 2°44.14 7 307 9.8 103160 55
2012-01-10 12:21 51°39.291 2°44.251 6 303 9.8 103160 55
2012-01-10 12:22 51°39.496 2°44.353 7.5 310 9.8 103160 53
2012-01-10 12:23 51°39.705 2°44.451 6.3 308 9.8 103160 52
2012-01-10 12:24 51°39.906 2°44.549 6.5 310 9.8 103150 52
2012-01-10 12:25 51°40.113 2°44.669 7 309 9.8 103160 52
2012-01-10 12:26 51°40.317 2°44.762 6.2 310 9.8 103150 54
2012-01-10 12:27 51°40.522 2°44.87 7 301 9.8 103150 54
2012-01-10 12:28 51°40.728 2°44.972 6.5 303 9.8 103160 55
2012-01-10 12:29 51°40.934 2°45.079 6.1 302 9.8 103150 54
2012-01-10 12:30 51°41.143 2°45.193 6.1 303 9.8 103160 55
2012-01-10 12:31 51°41.347 2°45.292 6.6 308 9.8 103160 55
2012-01-10 12:32 51°41.559 2°45.386 6.6 308 9.8 103160 53
2012-01-10 12:33 51°41.765 2°45.501 6.7 305 9.8 103150 53
2012-01-10 12:34 51°41.972 2°45.603 6.6 303 9.8 103160 51
2012-01-10 12:35 51°42.18 2°45.716 6.3 305 9.8 103150 55
2012-01-10 12:36 51°42.389 2°45.813 6.2 302 9.8 103150 54
2012-01-10 12:37 51°42.592 2°45.926 5.5 304 9.8 103150 51
2012-01-10 12:38 51°42.804 2°46.029 6.4 309 9.8 103160 52
2012-01-10 12:39 51°43.012 2°46.083 9.3 307 9.8 103150 54
2012-01-10 12:40 51°43.164 2°45.908 11.1 307 9.8 103120 54
2012-01-10 12:41 51°43.312 2°45.701 9.6 305 9.8 103130 52
2012-01-10 12:42 51°43.479 2°45.524 10 307 9.8 103120 53
2012-01-10 12:43 51°43.644 2°45.343 11.5 304 9.8 103120 54
2012-01-10 12:44 51°43.789 2°45.138 15.9 304 9.8 103120 53
2012-01-10 12:45 51°43.879 2°44.883 12.6 307 9.8 103110 53
2012-01-10 12:46 51°43.907 2°44.592 12.4 324 9.8 103120 51
2012-01-10 12:47 51°43.938 2°44.297 10.5 329 9.9 103120 52
2012-01-10 12:48 51°43.844 2°44.151 9.5 353 9.9 103110 52
2012-01-10 12:49 51°43.783 2°44.16 6.8 354 9.9 103130 51
2012-01-10 12:50 51°43.751 2°44.215 7.6 28 9.8 103130 52
2012-01-10 12:51 51°43.749 2°44.311 6 52 9.8 103150 51
2012-01-10 12:52 51°43.789 2°44.403 5.1 303 9.8 103160 51
2012-01-10 12:53 51°43.858 2°44.438 8.9 305 9.9 103150 53
2012-01-10 12:54 51°43.907 2°44.4 9.1 305 9.9 103140 51
2012-01-10 12:55 51°43.881 2°44.367 11 351 9.9 103120 51
2012-01-10 12:56 51°43.784 2°44.328 11.8 347 9.9 103120 51
2012-01-10 12:57 51°43.657 2°44.23 8.8 341 9.9 103120 52
2012-01-10 12:58 51°43.51 2°44.087 13.4 340 9.9 103120 51
2012-01-10 12:59 51°43.35 2°43.952 11.4 342 9.9 103120 51
2012-01-10 13:00 51°43.189 2°43.838 13.5 343 9.9 103120 53
2012-01-10 13:01 51°43.025 2°43.714 6.3 341 9.9 103130 52
2012-01-10 13:02 51°42.862 2°43.597 12.6 282 9.9 103120 53
2012-01-10 13:03 51°42.701 2°43.477 5.6 343 9.9 103130 52
2012-01-10 13:04 51°42.527 2°43.404 13.5 343 9.9 103120 52
2012-01-10 13:05 51°42.354 2°43.323 15.1 343 9.9 103130 53
2012-01-10 13:06 51°42.182 2°43.236 10.7 345 9.8 103130 53
2012-01-10 13:07 51°42.009 2°43.16 9.8 344 9.8 103130 53
2012-01-10 13:08 51°41.838 2°43.067 10.6 344 9.8 103120 52
2012-01-10 13:09 51°41.668 2°42.985 10.7 279 9.8 103120 53
2012-01-10 13:10 51°41.499 2°42.891 8.5 344 9.8 103120 54
2012-01-10 13:11 51°41.332 2°42.809 11.8 346 9.8 103120 52
2012-01-10 13:12 51°41.157 2°42.738 14.2 346 9.8 103120 54
2012-01-10 13:13 51°40.988 2°42.656 5.8 345 9.7 103110 52
2012-01-10 13:14 51°40.871 2°42.639 6 6 9.7 103130 54
2012-01-10 13:15 51°40.778 2°42.794 5.9 3 9.7 103140 52
2012-01-10 13:16 51°40.647 2°43.051 6.7 3 9.7 103140 54
2012-01-10 13:17 51°40.526 2°43.326 5.8 8 9.7 103140 52
2012-01-10 13:18 51°40.469 2°43.664 5 9 9.7 103150 54
2012-01-10 13:19 51°40.377 2°43.988 5.4 5 9.7 103150 53
2012-01-10 13:20 51°40.279 2°44.289 7.5 11 9.7 103150 52
2012-01-10 13:21 51°40.18 2°44.604 5.3 4 9.7 103150 54
2012-01-10 13:22 51°40.089 2°44.92 4.7 1 9.7 103140 53
2012-01-10 13:23 51°39.976 2°45.193 5.1 5 9.7 103140 51
2012-01-10 13:24 51°39.909 2°45.31 5 9 9.7 103150 51
2012-01-10 13:25 51°39.88 2°45.363 4.9 4 9.6 103140 53
2012-01-10 13:26 51°39.869 2°45.408 5.7 6 9.6 103140 55
2012-01-10 13:27 51°39.869 2°45.449 5.2 5 9.6 103140 52
2012-01-10 13:28 51°39.876 2°45.491 4.7 6 9.6 103150 53
2012-01-10 13:29 51°39.889 2°45.534 5.3 6 9.6 103140 51
2012-01-10 13:30 51°39.905 2°45.581 5.8 5 9.6 103140 55
2012-01-10 13:31 51°39.922 2°45.627 6 7 9.6 103150 55
2012-01-10 13:32 51°39.939 2°45.673 6.4 10 9.6 103150 55
2012-01-10 13:33 51°39.953 2°45.723 5.7 21 9.6 103150 52
2012-01-10 13:34 51°39.955 2°45.824 1.3 51 9.6 103150 54
2012-01-10 13:35 51°40.027 2°45.905 6.4 307 9.6 103160 54
2012-01-10 13:36 51°40.154 2°45.876 7.5 280 9.7 103150 52
2012-01-10 13:37 51°40.336 2°45.789 7.7 309 9.7 103140 54
2012-01-10 13:38 51°40.523 2°45.693 6.5 302 9.7 103140 52
2012-01-10 13:39 51°40.714 2°45.607 8.6 304 9.7 103140 54
2012-01-10 13:40 51°40.894 2°45.535 8.2 304 9.7 103150 52
2012-01-10 13:41 51°40.975 2°45.491 7.3 309 9.7 103150 53
2012-01-10 13:42 51°41.02 2°45.463 6.1 310 9.7 103140 53
2012-01-10 13:43 51°41.062 2°45.443 7.1 304 9.7 103140 53
2012-01-10 13:44 51°41.099 2°45.427 6.9 303 9.7 103140 52
2012-01-10 13:45 51°41.13 2°45.413 5.9 306 9.7 103140 52
2012-01-10 13:46 51°41.16 2°45.399 6.8 279 9.7 103130 52
2012-01-10 13:47 51°41.188 2°45.385 5.7 309 9.8 103130 55
2012-01-10 13:48 51°41.215 2°45.369 6.9 282 9.8 103130 54
2012-01-10 13:49 51°41.241 2°45.354 6.4 284 9.8 103140 54
2012-01-10 13:50 51°41.269 2°45.339 6.7 322 9.8 103130 51
2012-01-10 13:51 51°41.272 2°45.319 6 356 9.8 103140 53
2012-01-10 13:52 51°41.229 2°45.349 6.5 358 9.7 103140 53
2012-01-10 13:53 51°41.166 2°45.392 7.6 359 9.7 103130 55
2012-01-10 13:54 51°41.122 2°45.418 6.8 356 9.7 103130 54
2012-01-10 13:55 51°41.103 2°45.444 6.2 356 9.7 103130 52
2012-01-10 13:56 51°41.089 2°45.465 6.5 350 9.7 103140 54
2012-01-10 13:57 51°41.074 2°45.469 7.8 348 9.7 103130 54
2012-01-10 13:58 51°40.999 2°45.422 9.2 347 9.7 103120 54
2012-01-10 13:59 51°40.949 2°45.365 7.4 280 9.7 103130 52
2012-01-10 14:00 51°40.943 2°45.34 6 335 9.7 103130 52
2012-01-10 14:01 51°40.95 2°45.335 5.3 284 9.8 103130 52
2012-01-10 14:02 51°40.965 2°45.345 5.8 284 9.8 103130 51
2012-01-10 14:03 51°40.985 2°45.365 5.4 284 9.8 103140 51
2012-01-10 14:04 51°41 2°45.35 7.2 329 9.8 103130 53
2012-01-10 14:05 51°41.02 2°45.278 7 323 9.8 103130 54
2012-01-10 14:06 51°41.047 2°45.224 7.4 280 9.8 103130 52
2012-01-10 14:07 51°41.068 2°45.204 7.3 328 9.8 103120 53
2012-01-10 14:08 51°41.085 2°45.199 6.2 287 9.8 103130 54
2012-01-10 14:09 51°41.102 2°45.193 5.5 285 9.8 103130 54
2012-01-10 14:10 51°41.113 2°45.194 5.8 347 9.9 103130 52
2012-01-10 14:11 51°41.113 2°45.225 5.8 13 9.8 103130 54
2012-01-10 14:12 51°41.104 2°45.293 5.4 10 9.8 103130 54
2012-01-10 14:13 51°41.079 2°45.358 5.4 4 9.8 103120 52
2012-01-10 14:14 51°41.049 2°45.4 6 354 9.8 103120 54
2012-01-10 14:15 51°41.019 2°45.417 6.4 280 9.8 103130 52
2012-01-10 14:16 51°40.994 2°45.412 7.9 283 9.7 103120 53
2012-01-10 14:17 51°40.971 2°45.396 6.8 346 9.7 103120 53
2012-01-10 14:18 51°40.942 2°45.396 6.9 355 9.8 103110 51
2012-01-10 14:19 51°40.906 2°45.423 7 359 9.8 103120 51
2012-01-10 14:20 51°40.868 2°45.475 5.5 3 9.8 103120 52
2012-01-10 14:21 51°40.833 2°45.498 6.5 284 9.8 103120 54
2012-01-10 14:22 51°40.821 2°45.449 7.5 335 9.8 103120 54
2012-01-10 14:23 51°40.774 2°45.401 9.4 281 9.8 103120 51
2012-01-10 14:24 51°40.687 2°45.346 8.8 283 9.8 103110 52
2012-01-10 14:25 51°40.59 2°45.241 8.9 341 9.8 103110 54
2012-01-10 14:26 51°40.48 2°45.142 9 280 9.8 103120 52
2012-01-10 14:27 51°40.346 2°45.122 10.2 353 9.8 103120 53
2012-01-10 14:28 51°40.182 2°45.167 9.9 352 9.9 103110 51
2012-01-10 14:29 51°40.005 2°45.207 9.2 350 9.9 103120 52
2012-01-10 14:30 51°39.829 2°45.238 11.1 349 9.9 103120 52
2012-01-10 14:31 51°39.654 2°45.255 8.4 348 9.9 103110 52
2012-01-10 14:32 51°39.482 2°45.267 10.4 349 9.9 103110 52
2012-01-10 14:33 51°39.306 2°45.285 9.3 351 9.9 103110 53
2012-01-10 14:34 51°39.126 2°45.309 9 349 9.9 103110 51
2012-01-10 14:35 51°38.953 2°45.327 8.7 351 9.8 103110 53
2012-01-10 14:36 51°38.776 2°45.355 8.2 347 9.9 103110 51
2012-01-10 14:37 51°38.598 2°45.37 10.3 350 9.9 103110 51
2012-01-10 14:38 51°38.424 2°45.389 8.7 350 9.9 103110 51
2012-01-10 14:39 51°38.245 2°45.409 10.2 353 9.9 103120 53
2012-01-10 14:40 51°38.074 2°45.415 12.3 353 9.9 103110 52
2012-01-10 14:41 51°37.898 2°45.439 9.6 351 9.9 103120 52
2012-01-10 14:42 51°37.72 2°45.49 9.5 353 9.9 103120 52
2012-01-10 14:43 51°37.548 2°45.56 9.4 355 9.9 103110 52
2012-01-10 14:44 51°37.374 2°45.621 8.4 353 9.9 103120 53
2012-01-10 14:45 51°37.197 2°45.668 8.9 352 9.9 103120 51
2012-01-10 14:46 51°37.02 2°45.728 11.2 351 10 103120 53
2012-01-10 14:47 51°36.847 2°45.78 9.6 351 10 103130 52
2012-01-10 14:48 51°36.666 2°45.843 9.6 353 10 103120 53
2012-01-10 14:49 51°36.489 2°45.899 11.2 352 10 103120 51
2012-01-10 14:50 51°36.306 2°45.952 9.5 351 9.9 103120 51
2012-01-10 14:51 51°36.128 2°46 11.3 352 9.9 103120 53
2012-01-10 14:52 51°35.947 2°46.06 10.2 351 9.9 103120 52
2012-01-10 14:53 51°35.766 2°46.128 11 354 9.9 103120 52
2012-01-10 14:54 51°35.584 2°46.18 11.3 350 9.9 103120 53
2012-01-10 14:55 51°35.398 2°46.232 8.9 351 9.9 103120 53
2012-01-10 14:56 51°35.214 2°46.28 10.9 354 9.8 103130 51
2012-01-10 14:57 51°35.031 2°46.339 11.7 352 9.8 103130 52
2012-01-10 14:58 51°34.853 2°46.383 10.6 349 9.8 103130 53
2012-01-10 14:59 51°34.674 2°46.438 8.7 350 9.8 103130 53
2012-01-10 15:00 51°34.495 2°46.494 10.2 352 9.8 103130 53
2012-01-10 15:01 51°34.312 2°46.533 8.9 351 9.8 103140 53
2012-01-10 15:02 51°34.132 2°46.571 9.2 355 9.7 103130 53
2012-01-10 15:03 51°33.956 2°46.628 10.6 351 9.8 103130 53
2012-01-10 15:04 51°33.775 2°46.681 9.6 351 9.9 103140 51
2012-01-10 15:05 51°33.599 2°46.739 10.8 350 9.9 103140 53
2012-01-10 15:06 51°33.415 2°46.777 11 348 9.8 103130 52
2012-01-10 15:07 51°33.238 2°46.816 9.7 351 9.8 103140 52
2012-01-10 15:08 51°33.058 2°46.868 7.8 351 9.8 103140 54
2012-01-10 15:09 51°32.875 2°46.936 8.6 352 9.8 103140 54
2012-01-10 15:10 51°32.696 2°46.988 10.5 350 9.7 103130 52
2012-01-10 15:11 51°32.511 2°47.029 12 351 9.7 103140 54
2012-01-10 15:12 51°32.328 2°47.075 9 350 9.7 103140 54
2012-01-10 15:13 51°32.147 2°47.133 8.4 351 9.7 103140 52
2012-01-10 15:14 51°31.968 2°47.183 8.3 354 9.7 103150 51
2012-01-10 15:15 51°31.782 2°47.231 11.6 350 9.5 103130 50
2012-01-10 15:16 51°31.602 2°47.271 8.5 349 9.8 103140 52
2012-01-10 15:17 51°31.417 2°47.331 9 350 9.9 103140 50
2012-01-10 15:18 51°31.236 2°47.382 8.7 350 9.9 103140 51
2012-01-10 15:19 51°31.051 2°47.42 11.7 348 9.9 103140 51
2012-01-10 15:20 51°30.864 2°47.468 7.8 348 9.9 103140 51
2012-01-10 15:21 51°30.683 2°47.514 10.3 346 9.8 103140 53
2012-01-10 15:22 51°30.497 2°47.568 8 347 9.8 103140 53
2012-01-10 15:23 51°30.314 2°47.612 9.4 346 9.8 103140 53
2012-01-10 15:24 51°30.135 2°47.653 12.3 347 9.7 103140 54
2012-01-10 15:25 51°29.954 2°47.69 9 348 9.7 103140 53
2012-01-10 15:26 51°29.774 2°47.752 8.8 348 9.7 103150 54
2012-01-10 15:27 51°29.593 2°47.791 10.4 347 9.6 103150 54
2012-01-10 15:28 51°29.404 2°47.843 11 346 9.6 103140 53
2012-01-10 15:29 51°29.22 2°47.875 8.7 348 9.5 103140 53
2012-01-10 15:30 51°29.04 2°47.931 14.9 348 9.5 103150 53
2012-01-10 15:31 51°28.852 2°47.973 9.4 349 9.5 103150 53
2012-01-10 15:32 51°28.671 2°48.02 12 349 9.5 103150 54
2012-01-10 15:33 51°28.482 2°48.06 8.8 346 9.5 103150 54
2012-01-10 15:34 51°28.298 2°48.113 11.2 347 9.5 103150 54
2012-01-10 15:35 51°28.117 2°48.158 13 347 9.4 103150 55
2012-01-10 15:36 51°27.933 2°48.208 10.6 347 9.4 103150 55
2012-01-10 15:37 51°27.748 2°48.262 8.8 346 9.4 103160 54
2012-01-10 15:38 51°27.559 2°48.306 9 349 9.4 103160 54
2012-01-10 15:39 51°27.372 2°48.338 9.9 348 9.4 103160 53
2012-01-10 15:40 51°27.19 2°48.393 10.5 349 9.4 103160 55
2012-01-10 15:41 51°27.004 2°48.424 11.9 349 9.4 103160 55
2012-01-10 15:42 51°26.815 2°48.462 12.3 348 9.4 103170 54
2012-01-10 15:43 51°26.63 2°48.514 9 348 9.4 103170 54
2012-01-10 15:44 51°26.445 2°48.558 10.3 349 9.4 103170 53
2012-01-10 15:45 51°26.259 2°48.604 12.3 346 9.4 103170 53
2012-01-10 15:46 51°26.076 2°48.634 10 346 9.4 103170 53
2012-01-10 15:47 51°25.889 2°48.677 15 348 9.4 103170 55
2012-01-10 15:48 51°25.708 2°48.728 12.9 346 9.4 103170 55
2012-01-10 15:49 51°25.522 2°48.765 11.8 348 9.4 103170 54
2012-01-10 15:50 51°25.337 2°48.813 8.6 345 9.3 103170 55
2012-01-10 15:51 51°25.153 2°48.856 10.4 346 9.3 103180 53
2012-01-10 15:52 51°24.966 2°48.908 10.8 346 9.3 103170 53
2012-01-10 15:53 51°24.777 2°48.934 11.9 347 9.3 103180 54
2012-01-10 15:54 51°24.585 2°48.965 10.2 349 9.3 103180 56
2012-01-10 15:55 51°24.397 2°49.008 9.2 349 9.3 103190 55
2012-01-10 15:56 51°24.209 2°49.047 10.8 346 9.3 103190 55
2012-01-10 15:57 51°24.031 2°49.136 8.4 351 9.3 103190 54
2012-01-10 15:58 51°23.853 2°49.273 9.6 353 9.2 103190 53
2012-01-10 15:59 51°23.68 2°49.4 9.9 351 9.2 103190 54
2012-01-10 16:00 51°23.514 2°49.572 8.4 356 9.2 103190 53
2012-01-10 16:01 51°23.366 2°49.784 8.5 356 9.2 103190 55
2012-01-10 16:02 51°23.209 2°49.962 8.1 352 9.2 103200 55
2012-01-10 16:03 51°23.029 2°50.069 10.8 348 9.2 103190 55
2012-01-10 16:04 51°22.847 2°50.129 9.1 350 9.2 103190 54
2012-01-10 16:05 51°22.661 2°50.216 12.3 351 9.2 103190 55
2012-01-10 16:06 51°22.476 2°50.295 11.4 348 9.2 103190 56
2012-01-10 16:07 51°22.293 2°50.362 11.6 350 9.2 103190 55
2012-01-10 16:08 51°22.104 2°50.432 10 349 9.2 103200 55
2012-01-10 16:09 51°21.915 2°50.52 8.5 348 9.2 103190 55
2012-01-10 16:10 51°21.726 2°50.588 11.5 349 9.2 103190 53
2012-01-10 16:11 51°21.54 2°50.679 11.8 353 9.2 103200 54
2012-01-10 16:12 51°21.354 2°50.75 12.4 350 9.2 103200 54
2012-01-10 16:13 51°21.171 2°50.816 9.1 353 9.2 103200 54
2012-01-10 16:14 51°20.985 2°50.918 9.4 352 9.2 103200 55
2012-01-10 16:15 51°20.806 2°50.994 12.7 353 9.1 103200 55
2012-01-10 16:16 51°20.619 2°51.081 11.4 351 9.2 103190 55
2012-01-10 16:17 51°20.432 2°51.154 12.2 353 9.2 103200 55
2012-01-10 16:18 51°20.25 2°51.23 8.5 354 9.2 103200 54
2012-01-10 16:19 51°20.059 2°51.303 10.2 354 9.2 103200 55
2012-01-10 16:20 51°19.873 2°51.365 9.7 354 9.2 103210 54
2012-01-10 16:21 51°19.682 2°51.447 9.6 355 9.2 103200 55
2012-01-10 16:22 51°19.495 2°51.53 8.3 351 9.2 103200 54
2012-01-10 16:23 51°19.308 2°51.593 8.8 353 9.2 103210 55
2012-01-10 16:24 51°19.119 2°51.664 9.1 356 9.2 103210 53
2012-01-10 16:25 51°18.93 2°51.737 11.7 353 9.1 103210 55
2012-01-10 16:26 51°18.743 2°51.801 9.5 352 9.2 103200 56
2012-01-10 16:27 51°18.55 2°51.855 9.3 354 9.2 103210 53
2012-01-10 16:28 51°18.361 2°51.921 8.9 353 9.3 103210 53
2012-01-10 16:29 51°18.176 2°51.98 10.2 352 9.3 103210 54
2012-01-10 16:30 51°17.986 2°52.057 9.2 352 9.3 103220 53
2012-01-10 16:31 51°17.8 2°52.112 9.6 354 9.3 103220 55
2012-01-10 16:32 51°17.607 2°52.169 8.8 353 9.3 103210 53
2012-01-10 16:33 51°17.417 2°52.221 8.7 352 9.3 103220 54
2012-01-10 16:34 51°17.233 2°52.296 8.1 355 9.2 103220 53
2012-01-10 16:35 51°17.05 2°52.415 8.3 353 9.2 103230 55
2012-01-10 16:36 51°16.869 2°52.525 8.2 354 9.2 103230 55
2012-01-10 16:37 51°16.701 2°52.681 7.4 355 9.1 103230 55
2012-01-10 16:38 51°16.533 2°52.835 8.2 356 9.1 103230 55
2012-01-10 16:39 51°16.353 2°52.977 8.6 356 9.1 103230 54
2012-01-10 16:40 51°16.181 2°53.121 8.5 357 9.1 103230 54
2012-01-10 16:41 51°16.007 2°53.28 8.3 1 9.1 103240 54
2012-01-10 16:42 51°15.844 2°53.45 7.4 2 9.1 103240 54
2012-01-10 16:43 51°15.686 2°53.645 6.9 1 9.1 103240 53
2012-01-10 16:44 51°15.526 2°53.827 6.8 2 9.1 103230 53
2012-01-10 16:45 51°15.368 2°54.008 8 360 9.1 103240 55
2012-01-10 16:46 51°15.205 2°54.2 6.5 2 9.1 103230 53
2012-01-10 16:47 51°15.053 2°54.387 7 2 9.1 103240 53
2012-01-10 16:48 51°14.898 2°54.585 7.7 -999 9.1 103240 54
2012-01-10 16:49 51°14.75 2°54.775 7.6 1 9.1 103240 55
2012-01-10 16:50 51°14.59 2°54.957 6.9 359 9.1 103230 53
2012-01-10 16:51 51°14.432 2°55.138 6.5 358 9.1 103240 53
2012-01-10 16:52 51°14.287 2°55.283 6 356 9.1 103250 52
2012-01-10 16:53 51°14.163 2°55.389 4.9 360 9 103250 54
2012-01-10 16:54 51°14.048 2°55.474 4.7 351 9.1 103260 56
2012-01-10 16:55 51°13.962 2°55.537 2.4 338 9.3 103260 53
2012-01-10 16:56 51°13.884 2°55.592 4.1 357 9.3 103260 52
2012-01-10 16:57 51°13.812 2°55.647 4.8 344 9.4 103260 55
2012-01-10 16:58 51°13.756 2°55.715 3.1 12 9.5 103260 52
2012-01-10 16:59 51°13.696 2°55.821 3.2 359 9.6 103270 55
2012-01-10 17:00 51°13.652 2°55.93 0.1 17 9.6 103270 54
2012-01-10 17:01 51°13.638 2°56.008 4.6 45 9.7 103270 52